This is the latest recevied weather packets stored in our database for station/object HB9UQS-13. If no packets are shown the sender has not sent any weather packets the latest 10 day(s).
| Time | Temp. | Humidity | Pressure | Rain* | Wind** | Luminosity | Snow |
|---|---|---|---|---|---|---|---|
| 1777709621 | 15.56° C | 64% | 937.3 hPa | 0 mm | - | 0 W/m² | - |
| 1777707821 | 16.11° C | 65% | 937.6 hPa | 0 mm | - | 0 W/m² | - |
| 1777706021 | 14.44° C | 71% | 937.6 hPa | 0 mm | - | 0 W/m² | - |
| 1777704221 | 14.44° C | 72% | 937.6 hPa | 0 mm | - | 0 W/m² | - |
| 1777702421 | 11.67° C | 78% | 937.4 hPa | 0 mm | - | 0 W/m² | - |
| 1777700621 | 10° C | 84% | 937.4 hPa | 0 mm | - | 0 W/m² | - |
| 1777698821 | 8.89° C | 87% | 937.2 hPa | 0 mm | - | 0 W/m² | - |
| 1777697021 | 9.44° C | 85% | 937.2 hPa | 0 mm | - | 0 W/m² | - |
| 1777695221 | 7.78° C | 91% | 937.2 hPa | 0 mm | - | 0 W/m² | - |
| 1777693421 | 6.67° C | 87% | 937.2 hPa | 0 mm | - | 0 W/m² | - |
| 1777691621 | 7.22° C | 87% | 937.3 hPa | 0 mm | - | 0 W/m² | - |
| 1777689821 | 6.67° C | 85% | 937.4 hPa | 0 mm | - | 0 W/m² | - |
| 1777688021 | 6.11° C | 86% | 937.4 hPa | 0 mm | - | 0 W/m² | - |
| 1777686221 | 5.56° C | 87% | 937.4 hPa | 0 mm | - | 0 W/m² | - |
| 1777684421 | 6.67° C | 84% | 937.5 hPa | 0 mm | - | 0 W/m² | - |
| 1777682621 | 6.67° C | 82% | 937.4 hPa | 0 mm | - | 0 W/m² | - |
| 1777680821 | 6.67° C | 82% | 937.5 hPa | 0 mm | - | 0 W/m² | - |
| 1777679021 | 6.11° C | 84% | 937.6 hPa | 0 mm | - | 0 W/m² | - |
| 1777677222 | 6.11° C | 84% | 937.5 hPa | 0 mm | - | 0 W/m² | - |
| 1777675421 | 6.11° C | 83% | 937.5 hPa | 0 mm | - | 0 W/m² | - |
| 1777673621 | 6.11° C | 82% | 937.6 hPa | 0 mm | - | 0 W/m² | - |
| 1777671821 | 6.11° C | 82% | 937.4 hPa | 0 mm | - | 0 W/m² | - |
| 1777670021 | 6.67° C | 80% | 937.4 hPa | 0 mm | - | 0 W/m² | - |
| 1777668221 | 7.22° C | 78% | 937.3 hPa | 0 mm | - | 0 W/m² | - |
| 1777666421 | 8.33° C | 73% | 937.2 hPa | 0 mm | - | 0 W/m² | - |
* Rain latest hour (hover to see other rain measurements)
** Current wind speed in m/s (hover to see current wind gust speed)